Terminal Aerodrome Forecast
Issued by NWS Jackson, KY

Home | Current Version | Previous Version | Text Only | Print | Product List | Glossary On
Versions: 1 2 3 4 5 6 7 8 9 10 11 12 13 14 15
000
FTUS43 KJKL 222003 AAA
TAFJKL
TAF AMD
KJKL 222003Z 2220/2318 20009G18KT 6SM -SHRA OVC045
     FM230000 18011G19KT 3SM -SHRA OVC030
     FM230700 23010KT P6SM VCSH BKN035
     FM231300 24010G18KT P6SM VCSH BKN030=

USA.gov is the U.S. government's official web portal to all federal, state and local government web resources and services.